createdAt,value
2018-06-12T00:01:03.577Z,16.75
2018-06-12T00:03:32.875Z,16.62
2018-06-12T00:06:03.393Z,16.42
2018-06-12T00:08:34.670Z,16.36
2018-06-12T00:11:04.463Z,16.51
2018-06-12T00:13:34.719Z,16.39
2018-06-12T00:16:04.422Z,16.38
2018-06-12T00:18:36.117Z,16.19
2018-06-12T00:21:06.000Z,16.23
2018-06-12T00:23:36.350Z,16.39
2018-06-12T00:26:07.008Z,16.33
2018-06-12T00:28:36.524Z,16.32
2018-06-12T00:31:06.374Z,16.43
2018-06-12T00:33:35.995Z,16.53
2018-06-12T00:36:05.716Z,16.58
2018-06-12T00:38:35.372Z,16.58
2018-06-12T00:41:05.105Z,16.61
2018-06-12T00:43:35.647Z,16.44
2018-06-12T00:46:05.331Z,16.52
2018-06-12T00:48:35.109Z,16.53
2018-06-12T00:51:04.473Z,16.46
2018-06-12T00:53:34.220Z,16.52
2018-06-12T00:56:05.253Z,16.39
2018-06-12T00:58:35.227Z,16.33
2018-06-12T01:01:05.049Z,16.28
2018-06-12T01:03:35.475Z,16.30
2018-06-12T01:06:05.331Z,16.27
2018-06-12T01:08:34.968Z,16.09
2018-06-12T01:11:06.142Z,16.14
2018-06-12T01:13:35.814Z,15.97
2018-06-12T01:16:06.335Z,15.97
2018-06-12T01:18:36.195Z,15.90
2018-06-12T01:21:06.756Z,15.88
2018-06-12T01:23:36.405Z,15.88
2018-06-12T01:26:06.103Z,15.90
2018-06-12T01:28:37.271Z,15.89
2018-06-12T01:31:06.958Z,15.92
2018-06-12T01:33:36.608Z,15.95
2018-06-12T01:36:06.290Z,15.94
2018-06-12T01:38:37.260Z,16.08
2018-06-12T01:41:07.057Z,16.04
2018-06-12T01:43:37.607Z,15.97
2018-06-12T01:46:08.522Z,15.94
2018-06-12T01:48:39.520Z,15.96
2018-06-12T01:51:09.219Z,15.83
2018-06-12T01:53:39.662Z,15.88
2018-06-12T01:56:09.300Z,15.79
2018-06-12T01:58:39.494Z,15.78
2018-06-12T02:01:10.124Z,15.68
2018-06-12T02:03:40.976Z,15.51
2018-06-12T02:06:15.331Z,15.46
2018-06-12T02:09:07.092Z,15.47
2018-06-12T02:17:09.376Z,15.62
2018-06-12T02:19:39.629Z,15.66
2018-06-12T02:22:10.118Z,15.63
2018-06-12T02:24:40.385Z,15.53
2018-06-12T02:27:10.095Z,15.53
2018-06-12T02:29:39.953Z,15.44
2018-06-12T02:32:09.597Z,15.40
2018-06-12T02:34:40.189Z,15.38
2018-06-12T02:37:11.624Z,15.28
2018-06-12T02:39:42.286Z,15.21
2018-06-12T02:42:12.804Z,15.15
2018-06-12T02:44:42.669Z,15.26
2018-06-12T02:47:12.785Z,15.36
2018-06-12T02:49:42.529Z,15.26
2018-06-12T02:52:14.001Z,15.36
2018-06-12T02:54:43.705Z,15.35
2018-06-12T02:57:13.439Z,15.32
2018-06-12T02:59:44.237Z,15.20
2018-06-12T03:02:15.933Z,15.18
2018-06-12T03:04:45.646Z,15.20
2018-06-12T03:07:15.483Z,15.18
2018-06-12T03:09:45.193Z,15.15
2018-06-12T03:12:14.840Z,15.12
2018-06-12T03:14:46.259Z,15.12
2018-06-12T03:17:19.134Z,15.08
2018-06-12T03:19:49.767Z,15.01
2018-06-12T03:22:20.513Z,15.04
2018-06-12T03:24:54.324Z,15.01
2018-06-12T03:27:24.557Z,15.05
2018-06-12T03:29:54.324Z,15.21
2018-06-12T03:32:24.198Z,15.28
2018-06-12T03:34:54.741Z,15.27
2018-06-12T03:37:33.406Z,15.23
2018-06-12T03:40:06.577Z,15.21
2018-06-12T03:42:37.015Z,15.20
2018-06-12T03:45:07.632Z,15.35
2018-06-12T03:47:38.337Z,15.44
2018-06-12T03:50:07.979Z,15.52
2018-06-12T03:52:37.745Z,15.54
2018-06-12T03:55:07.769Z,15.58
2018-06-12T03:57:38.377Z,15.64
2018-06-12T04:00:09.195Z,15.61
2018-06-12T04:02:39.751Z,15.69
2018-06-12T04:05:09.335Z,15.77
2018-06-12T04:07:39.104Z,15.68
2018-06-12T04:10:08.727Z,15.68
2018-06-12T04:12:38.458Z,15.64
2018-06-12T04:15:08.285Z,15.74
2018-06-12T04:17:38.108Z,15.63
2018-06-12T04:20:08.938Z,15.62
2018-06-12T04:22:38.787Z,15.66
2018-06-12T04:25:08.554Z,15.57
2018-06-12T04:27:38.259Z,15.57
2018-06-12T04:30:07.926Z,15.68
2018-06-12T04:32:37.629Z,15.75
2018-06-12T04:35:07.536Z,15.75
2018-06-12T04:37:37.168Z,15.69
2018-06-12T04:40:06.876Z,15.62
2018-06-12T04:42:37.503Z,15.63
2018-06-12T04:45:07.243Z,15.63
2018-06-12T04:47:36.904Z,15.70
2018-06-12T04:50:06.703Z,15.76
2018-06-12T04:52:36.977Z,15.77
2018-06-12T04:55:06.668Z,15.69
2018-06-12T04:57:36.272Z,15.73
2018-06-12T05:00:06.029Z,15.64
2018-06-12T05:02:35.672Z,15.65
2018-06-12T05:05:05.418Z,15.73
2018-06-12T05:07:35.268Z,15.81
2018-06-12T05:10:04.897Z,15.80
2018-06-12T05:12:34.612Z,15.85
2018-06-12T05:15:04.218Z,15.93
2018-06-12T05:17:34.124Z,16.10
2018-06-12T05:20:03.836Z,16.10
2018-06-12T05:22:33.460Z,16.19
2018-06-12T05:25:03.498Z,16.20
2018-06-12T05:27:33.361Z,16.27
2018-06-12T05:30:02.987Z,16.30
2018-06-12T05:32:32.753Z,16.38
2018-06-12T05:35:02.583Z,16.50
2018-06-12T05:37:32.469Z,16.57
2018-06-12T05:40:02.294Z,16.48
2018-06-12T05:42:32.062Z,16.42
2018-06-12T05:45:01.655Z,16.30
2018-06-12T05:47:32.110Z,16.37
2018-06-12T05:50:01.907Z,16.44
2018-06-12T05:52:31.925Z,16.57
2018-06-12T05:55:01.801Z,16.68
2018-06-12T05:57:31.527Z,16.64
2018-06-12T06:00:01.739Z,16.58
2018-06-12T06:02:31.509Z,16.47
2018-06-12T06:05:02.136Z,16.60
2018-06-12T06:07:31.877Z,16.66
2018-06-12T06:10:01.221Z,16.70
2018-06-12T06:12:30.857Z,16.50
2018-06-12T06:15:00.751Z,16.39
2018-06-12T06:17:30.786Z,16.38
2018-06-12T06:20:01.242Z,16.44
2018-06-12T06:22:31.022Z,16.45
2018-06-12T06:25:01.413Z,16.20
2018-06-12T06:27:32.918Z,16.10
2018-06-12T06:30:03.476Z,16.29
2018-06-12T06:32:33.141Z,16.22
2018-06-12T06:35:02.956Z,16.37
2018-06-12T06:37:33.386Z,16.43
2018-06-12T06:40:03.260Z,16.53
2018-06-12T06:42:33.047Z,16.67
2018-06-12T06:45:02.978Z,16.61
2018-06-12T06:47:32.811Z,16.62
2018-06-12T06:50:03.845Z,16.82
2018-06-12T06:52:35.558Z,17.05
2018-06-12T06:55:07.294Z,17.12
2018-06-12T06:57:36.982Z,17.08
2018-06-12T07:00:07.044Z,17.01
2018-06-12T07:02:36.765Z,17.03
2018-06-12T07:05:06.500Z,17.02
2018-06-12T07:07:36.644Z,17.04
2018-06-12T07:10:08.225Z,16.97
2018-06-12T07:12:38.818Z,16.88
2018-06-12T07:15:09.525Z,16.92
2018-06-12T07:17:39.874Z,17.01
2018-06-12T07:20:09.695Z,17.06
2018-06-12T07:22:40.550Z,17.17
2018-06-12T07:25:12.153Z,17.27
2018-06-12T07:27:41.968Z,17.41
2018-06-12T07:30:12.650Z,17.41
2018-06-12T07:32:42.344Z,17.45
2018-06-12T07:35:12.105Z,17.47
2018-06-12T07:37:41.903Z,17.52
2018-06-12T07:40:11.625Z,17.54
2018-06-12T07:42:41.550Z,17.53
2018-06-12T07:45:12.289Z,17.67
2018-06-12T07:47:43.672Z,17.72
2018-06-12T07:50:13.638Z,17.68
2018-06-12T07:52:44.245Z,17.57
2018-06-12T07:55:15.056Z,17.53
2018-06-12T07:57:44.862Z,17.55
2018-06-12T08:00:14.629Z,17.44
2018-06-12T08:02:45.122Z,17.53
2018-06-12T08:05:17.348Z,17.57
2018-06-12T08:07:46.922Z,17.51
2018-06-12T08:10:16.697Z,17.31
2018-06-12T08:12:46.519Z,17.26
2018-06-12T08:15:16.184Z,17.34
2018-06-12T08:17:46.107Z,17.33
2018-06-12T08:20:18.230Z,17.44
2018-06-12T08:22:48.415Z,17.29
2018-06-12T08:25:18.252Z,17.33
2018-06-12T08:27:48.724Z,17.33
2018-06-12T08:30:18.709Z,17.30
2018-06-12T08:32:48.920Z,17.30
2018-06-12T08:35:18.805Z,17.36
2018-06-12T08:37:48.877Z,17.36
2018-06-12T08:40:19.915Z,17.28
2018-06-12T08:42:50.283Z,17.21
2018-06-12T08:45:21.586Z,17.19
2018-06-12T08:47:52.460Z,17.30
2018-06-12T08:50:22.163Z,17.36
2018-06-12T08:52:52.628Z,17.39
2018-06-12T08:55:22.356Z,17.44
2018-06-12T08:57:52.637Z,17.58
2018-06-12T09:00:26.077Z,17.81
2018-06-12T09:02:56.180Z,18.01
2018-06-12T09:05:26.423Z,18.10
2018-06-12T09:07:57.424Z,18.08
2018-06-12T09:10:28.487Z,18.08
2018-06-12T09:12:58.757Z,18.15
2018-06-12T09:15:28.533Z,18.22
2018-06-12T09:17:58.530Z,18.32
2018-06-12T09:20:28.308Z,18.14
2018-06-12T09:22:58.145Z,18.05
2018-06-12T09:25:28.853Z,18.18
2018-06-12T09:27:59.626Z,18.23
2018-06-12T09:30:29.391Z,18.23
2018-06-12T09:32:59.050Z,18.24
2018-06-12T09:35:29.296Z,18.30
2018-06-12T09:37:59.136Z,18.35
2018-06-12T09:40:29.107Z,18.32
2018-06-12T09:42:59.371Z,18.20
2018-06-12T09:45:29.147Z,18.23
2018-06-12T09:47:58.937Z,18.12
2018-06-12T09:50:28.707Z,17.95
2018-06-12T09:52:59.253Z,18.00
2018-06-12T09:55:29.098Z,17.99
2018-06-12T09:57:59.007Z,17.88
2018-06-12T10:00:34.588Z,17.73
2018-06-12T10:03:04.661Z,17.72
2018-06-12T10:05:35.623Z,17.83
2018-06-12T10:08:06.949Z,17.90
2018-06-12T10:10:36.653Z,18.02
2018-06-12T10:13:07.139Z,18.13
2018-06-12T10:15:38.484Z,18.24
2018-06-12T10:18:08.188Z,18.16
2018-06-12T10:20:37.970Z,18.07
2018-06-12T10:23:08.330Z,18.02
2018-06-12T10:25:39.978Z,18.11
2018-06-12T10:28:10.135Z,18.31
2018-06-12T10:30:40.012Z,18.29
2018-06-12T10:33:10.568Z,18.44
2018-06-12T10:35:40.357Z,18.41
2018-06-12T10:38:10.076Z,18.50
2018-06-12T10:40:40.490Z,18.48
2018-06-12T10:43:10.398Z,18.57
2018-06-12T10:45:40.202Z,18.58
2018-06-12T10:48:10.580Z,18.51
2018-06-12T10:50:40.279Z,18.44
2018-06-12T10:53:10.294Z,18.46
2018-06-12T10:55:41.284Z,18.46
2018-06-12T10:58:11.108Z,18.49
2018-06-12T11:00:40.821Z,18.57
2018-06-12T11:03:13.867Z,18.62
2018-06-12T11:05:43.712Z,18.65
2018-06-12T11:08:14.299Z,18.78
2018-06-12T11:10:44.174Z,18.84
2018-06-12T11:13:14.237Z,18.79
2018-06-12T11:15:45.554Z,18.84
2018-06-12T11:18:15.743Z,18.94
2018-06-12T11:20:45.490Z,18.98
2018-06-12T11:23:15.337Z,18.83
2018-06-12T11:25:45.120Z,18.76
2018-06-12T11:28:16.656Z,18.73
2018-06-12T11:30:46.584Z,18.51
2018-06-12T11:33:21.020Z,18.61
2018-06-12T11:35:51.097Z,18.55
2018-06-12T11:38:21.242Z,18.60
2018-06-12T11:40:51.113Z,18.60
2018-06-12T11:43:20.985Z,18.68
2018-06-12T11:45:50.799Z,18.73
2018-06-12T11:48:20.625Z,18.82
2018-06-12T11:50:50.312Z,18.86
2018-06-12T11:53:21.188Z,18.89
2018-06-12T11:55:51.242Z,18.86
2018-06-12T11:58:20.944Z,18.83
2018-06-12T12:00:52.259Z,18.84
2018-06-12T12:03:22.034Z,18.83
2018-06-12T12:05:51.893Z,18.71
2018-06-12T12:08:21.678Z,18.66
2018-06-12T12:10:51.853Z,18.58
2018-06-12T12:13:23.332Z,18.53
2018-06-12T12:15:53.055Z,18.64
2018-06-12T12:18:22.807Z,18.73
2018-06-12T12:20:52.878Z,19.00
2018-06-12T12:23:23.077Z,19.16
2018-06-12T12:25:52.852Z,19.09
2018-06-12T12:28:22.706Z,19.28
2018-06-12T12:30:52.766Z,19.48
2018-06-12T12:33:23.109Z,19.40
2018-06-12T12:35:52.769Z,19.28
2018-06-12T12:38:22.635Z,19.28
2018-06-12T12:40:52.444Z,19.34
2018-06-12T12:43:22.906Z,19.35
2018-06-12T12:45:53.211Z,19.36
2018-06-12T12:48:23.004Z,19.28
2018-06-12T12:50:52.726Z,19.32
2018-06-12T12:53:23.009Z,19.38
2018-06-12T12:55:52.786Z,19.48
2018-06-12T12:58:22.577Z,19.60
2018-06-12T13:00:52.294Z,19.83
2018-06-12T13:03:22.093Z,19.92
2018-06-12T13:05:52.425Z,19.92
2018-06-12T13:08:22.207Z,19.87
2018-06-12T13:10:51.908Z,19.84
2018-06-12T13:13:22.457Z,19.70
2018-06-12T13:15:54.059Z,19.75
2018-06-12T13:18:26.309Z,19.96
2018-06-12T13:20:56.958Z,20.23
2018-06-12T13:23:29.073Z,20.50
2018-06-12T13:26:03.595Z,20.78
2018-06-12T13:28:36.227Z,21.08
2018-06-12T13:31:08.203Z,20.83
2018-06-12T13:33:39.794Z,20.70
2018-06-12T13:36:13.407Z,20.41
2018-06-12T13:38:46.779Z,20.31
2018-06-12T13:41:18.625Z,20.22
2018-06-12T13:43:55.430Z,20.20
2018-06-12T13:46:25.477Z,20.15
2018-06-12T13:48:55.367Z,20.13
2018-06-12T13:51:25.478Z,20.20
2018-06-12T13:53:56.076Z,20.19
2018-06-12T13:56:25.789Z,20.13
2018-06-12T13:58:55.964Z,20.11
2018-06-12T14:01:25.655Z,20.40
2018-06-12T14:03:57.107Z,20.67
2018-06-12T14:06:31.216Z,20.76
2018-06-12T14:09:05.956Z,20.62
2018-06-12T14:11:36.384Z,20.62
2018-06-12T14:14:07.484Z,20.44
2018-06-12T14:16:37.281Z,20.38
2018-06-12T14:19:08.491Z,20.22
2018-06-12T14:21:38.772Z,20.22
2018-06-12T14:24:08.436Z,19.98
2018-06-12T14:26:38.077Z,19.96
2018-06-12T14:29:08.487Z,19.90
2018-06-12T14:31:38.204Z,19.96
2018-06-12T14:34:07.615Z,20.10
2018-06-12T14:36:37.263Z,20.14
2018-06-12T14:39:10.704Z,20.21
2018-06-12T14:41:41.590Z,20.12
2018-06-12T14:44:12.239Z,19.82
2018-06-12T14:46:42.035Z,19.64
2018-06-12T14:49:12.806Z,19.55
2018-06-12T14:51:42.941Z,19.46
2018-06-12T14:54:13.017Z,19.45
2018-06-12T14:56:42.818Z,19.50
2018-06-12T14:59:12.677Z,19.69
2018-06-12T15:01:43.486Z,19.77
2018-06-12T15:04:13.791Z,19.73
2018-06-12T15:06:43.497Z,19.84
2018-06-12T15:09:14.037Z,19.89
2018-06-12T15:11:43.782Z,19.94
2018-06-12T15:14:13.525Z,20.00
2018-06-12T15:16:43.323Z,20.04
2018-06-12T15:19:14.066Z,20.09
2018-06-12T15:21:44.699Z,20.06
2018-06-12T15:24:14.608Z,19.97
2018-06-12T15:26:44.729Z,19.90
2018-06-12T15:29:14.456Z,19.80
2018-06-12T15:31:44.246Z,19.67
2018-06-12T15:34:14.597Z,19.62
2018-06-12T15:36:44.192Z,19.66
2018-06-12T15:39:15.648Z,19.60
2018-06-12T15:41:45.502Z,19.39
2018-06-12T15:44:16.360Z,19.39
2018-06-12T15:46:46.172Z,19.45
2018-06-12T15:49:17.703Z,19.42
2018-06-12T15:51:47.544Z,19.45
2018-06-12T15:54:17.906Z,19.42
2018-06-12T15:56:49.170Z,19.44
2018-06-12T15:59:19.875Z,19.42
2018-06-12T16:01:50.877Z,19.35
2018-06-12T16:04:20.675Z,19.29
2018-06-12T16:06:50.943Z,19.23
2018-06-12T16:09:21.535Z,19.22
2018-06-12T16:11:51.847Z,19.31
2018-06-12T16:14:22.372Z,19.48
2018-06-12T16:16:53.918Z,19.65
2018-06-12T16:19:25.615Z,19.81
2018-06-12T16:21:55.964Z,19.90
2018-06-12T16:24:26.763Z,20.05
2018-06-12T16:26:59.120Z,20.28
2018-06-12T16:29:28.978Z,20.27
2018-06-12T16:31:59.755Z,20.10
2018-06-12T16:34:31.104Z,20.09
2018-06-12T16:37:02.877Z,20.00
2018-06-12T16:39:33.600Z,19.82
2018-06-12T16:42:04.667Z,19.53
2018-06-12T16:44:36.883Z,19.32
2018-06-12T16:47:12.576Z,19.19
2018-06-12T16:49:44.474Z,19.10
2018-06-12T16:52:15.462Z,19.06
2018-06-12T16:54:46.099Z,19.05
2018-06-12T16:57:17.561Z,19.08
2018-06-12T16:59:47.978Z,19.22
2018-06-12T17:02:19.195Z,19.29
2018-06-12T17:04:49.022Z,19.17
2018-06-12T17:07:22.121Z,19.20
2018-06-12T17:09:52.435Z,19.20
2018-06-12T17:12:22.741Z,19.26
2018-06-12T17:14:52.463Z,19.31
2018-06-12T17:17:23.116Z,19.27
2018-06-12T17:19:54.091Z,19.33
2018-06-12T17:22:24.959Z,19.29
2018-06-12T17:24:55.852Z,19.21
2018-06-12T17:27:26.104Z,19.05
2018-06-12T17:29:56.094Z,18.93
2018-06-12T17:32:25.832Z,18.91
2018-06-12T17:34:55.648Z,18.91
2018-06-12T17:37:25.372Z,18.78
2018-06-12T17:39:55.308Z,18.63
2018-06-12T17:42:26.580Z,18.55
2018-06-12T17:44:58.072Z,18.47
2018-06-12T17:47:27.916Z,18.48
2018-06-12T17:49:59.245Z,18.49
2018-06-12T17:52:29.967Z,18.53
2018-06-12T17:55:00.356Z,18.51
2018-06-12T17:57:31.461Z,18.50
2018-06-12T18:00:01.717Z,18.52
2018-06-12T18:02:33.898Z,18.48
2018-06-12T18:05:04.279Z,18.41
2018-06-12T18:07:34.443Z,18.39
2018-06-12T18:10:09.426Z,18.36
2018-06-12T18:12:41.893Z,18.34
2018-06-12T18:15:13.002Z,18.33
2018-06-12T18:17:43.386Z,18.25
2018-06-12T18:20:13.228Z,18.11
2018-06-12T18:22:44.716Z,18.15
2018-06-12T18:25:15.609Z,18.24
2018-06-12T18:27:45.649Z,18.26
2018-06-12T18:30:15.959Z,18.25
2018-06-12T18:32:46.814Z,18.23
2018-06-12T18:35:17.995Z,18.22
2018-06-12T18:37:50.313Z,18.18
2018-06-12T18:40:20.607Z,18.22
2018-06-12T18:42:50.571Z,18.16
2018-06-12T18:45:21.610Z,18.14
2018-06-12T18:47:51.283Z,18.14
2018-06-12T18:50:21.951Z,18.06
2018-06-12T18:52:56.795Z,18.01
2018-06-12T18:55:27.992Z,17.95
2018-06-12T18:57:58.815Z,17.95
2018-06-12T19:00:28.877Z,17.97
2018-06-12T19:03:00.475Z,17.91
2018-06-12T19:05:30.498Z,17.84
2018-06-12T19:08:01.770Z,17.79
2018-06-12T19:10:33.113Z,17.85
2018-06-12T19:13:03.698Z,17.97
2018-06-12T19:15:35.178Z,17.83
2018-06-12T19:18:06.090Z,17.66
2018-06-12T19:20:37.544Z,17.63
2018-06-12T19:23:07.913Z,17.68
2018-06-12T19:25:37.913Z,17.58
2018-06-12T19:28:07.897Z,17.47
2018-06-12T19:30:37.978Z,17.44
2018-06-12T19:33:07.792Z,17.54
2018-06-12T19:35:37.450Z,17.54
2018-06-12T19:38:08.817Z,17.52
2018-06-12T19:40:38.610Z,17.49
2018-06-12T19:43:08.841Z,17.35
2018-06-12T19:45:39.518Z,17.33
2018-06-12T19:48:10.360Z,17.37
2018-06-12T19:50:40.352Z,17.28
2018-06-12T19:53:11.010Z,17.28
2018-06-12T19:55:41.268Z,17.20
2018-06-12T19:58:11.148Z,17.17
2018-06-12T20:00:41.687Z,17.19
2018-06-12T20:03:11.943Z,17.21
2018-06-12T20:05:44.012Z,17.17
2018-06-12T20:08:14.531Z,17.14
2018-06-12T20:10:45.510Z,17.10
2018-06-12T20:13:15.373Z,16.98
2018-06-12T20:15:45.078Z,16.88
2018-06-12T20:18:14.974Z,16.84
2018-06-12T20:20:46.327Z,16.84
2018-06-12T20:23:16.271Z,16.76
2018-06-12T20:25:46.251Z,16.79
2018-06-12T20:28:16.663Z,16.79
2018-06-12T20:30:46.465Z,16.73
2018-06-12T20:33:16.239Z,16.81
2018-06-12T20:35:46.089Z,16.77
2018-06-12T20:38:16.137Z,16.76
2018-06-12T20:40:46.407Z,16.70
2018-06-12T20:43:16.402Z,16.67
2018-06-12T20:45:46.628Z,16.71
2018-06-12T20:48:18.385Z,16.78
2018-06-12T20:50:48.183Z,16.71
2018-06-12T20:53:18.925Z,16.69
2018-06-12T20:55:48.735Z,16.67
2018-06-12T20:58:18.655Z,16.64
2018-06-12T21:00:48.792Z,16.61
2018-06-12T21:03:18.590Z,16.60
2018-06-12T21:05:48.307Z,16.63
2018-06-12T21:08:18.110Z,16.64
2018-06-12T21:10:48.233Z,16.55
2018-06-12T21:13:18.418Z,16.55
2018-06-12T21:15:49.165Z,16.63
2018-06-12T21:18:18.956Z,16.66
2018-06-12T21:20:48.772Z,16.71
2018-06-12T21:23:18.518Z,16.67
2018-06-12T21:25:48.309Z,16.70
2018-06-12T21:28:18.381Z,16.55
2018-06-12T21:30:48.815Z,16.54
2018-06-12T21:33:19.520Z,16.51
2018-06-12T21:35:50.072Z,16.55
2018-06-12T21:38:19.779Z,16.52
2018-06-12T21:40:49.507Z,16.46
2018-06-12T21:43:19.587Z,16.47
2018-06-12T21:45:49.909Z,16.46
2018-06-12T21:48:20.456Z,16.47
2018-06-12T21:50:50.184Z,16.45
2018-06-12T21:53:20.707Z,16.47
2018-06-12T21:55:50.546Z,16.49
2018-06-12T21:58:20.603Z,16.61
2018-06-12T22:00:50.514Z,16.57
2018-06-12T22:03:20.345Z,16.51
2018-06-12T22:05:53.421Z,16.48
2018-06-12T22:08:24.947Z,16.42
2018-06-12T22:12:24.095Z,16.37
2018-06-12T22:14:53.778Z,16.35
2018-06-12T22:17:24.403Z,16.36
2018-06-12T22:19:54.256Z,16.43
2018-06-12T22:22:24.936Z,16.37
2018-06-12T22:24:54.656Z,16.31
2018-06-12T22:27:24.263Z,16.33
2018-06-12T22:29:54.922Z,16.43
2018-06-12T22:32:24.601Z,16.33
2018-06-12T22:34:55.472Z,16.32
2018-06-12T22:37:25.164Z,16.21
2018-06-12T22:39:56.264Z,16.19
2018-06-12T22:42:25.850Z,16.24
2018-06-12T22:44:55.607Z,16.26
2018-06-12T22:47:25.309Z,16.22
2018-06-12T22:49:54.935Z,16.12
2018-06-12T22:52:24.541Z,16.08
2018-06-12T22:54:54.204Z,16.11
2018-06-12T22:57:23.859Z,16.18
2018-06-12T22:59:53.739Z,16.10
2018-06-12T23:02:23.385Z,16.13
2018-06-12T23:04:53.415Z,15.99
2018-06-12T23:07:24.021Z,15.99
2018-06-12T23:09:53.820Z,15.94
2018-06-12T23:12:25.674Z,15.93
2018-06-12T23:14:56.776Z,15.95
2018-06-12T23:17:26.621Z,15.97
2018-06-12T23:20:13.184Z,15.99
2018-06-12T23:22:43.494Z,16.03
2018-06-12T23:25:13.395Z,16.04
2018-06-12T23:27:42.782Z,16.08
2018-06-12T23:30:13.324Z,16.04
2018-06-12T23:32:43.010Z,16.07
2018-06-12T23:35:12.902Z,15.96
2018-06-12T23:37:42.754Z,15.92
2018-06-12T23:40:12.454Z,15.88
2018-06-12T23:42:42.835Z,15.90
2018-06-12T23:45:12.848Z,15.85
2018-06-12T23:47:43.052Z,15.81
2018-06-12T23:50:13.403Z,15.79
2018-06-12T23:52:43.860Z,15.84
2018-06-12T23:55:13.747Z,15.74
2018-06-12T23:57:43.732Z,15.67
